createdAt,value
2018-10-16T00:00:17.950Z,13.27
2018-10-16T00:01:17.954Z,13.27
2018-10-16T00:02:17.956Z,13.25
2018-10-16T00:03:18.549Z,13.25
2018-10-16T00:04:18.016Z,13.21
2018-10-16T00:05:18.150Z,13.21
2018-10-16T00:06:18.040Z,13.22
2018-10-16T00:07:18.018Z,13.25
2018-10-16T00:08:18.147Z,13.23
2018-10-16T00:09:17.918Z,13.23
2018-10-16T00:10:18.154Z,13.21
2018-10-16T00:11:17.957Z,13.21
2018-10-16T00:12:18.152Z,13.2
2018-10-16T00:13:18.386Z,13.18
2018-10-16T00:14:17.836Z,13.2
2018-10-16T00:15:18.091Z,13.17
2018-10-16T00:16:18.079Z,13.15
2018-10-16T00:17:17.963Z,13.15
2018-10-16T00:18:18.342Z,13.13
2018-10-16T00:19:18.336Z,13.12
2018-10-16T00:20:17.994Z,13.11
2018-10-16T00:21:18.135Z,13.12
2018-10-16T00:22:18.017Z,13.1
2018-10-16T00:23:18.124Z,13.09
2018-10-16T00:24:18.143Z,13.07
2018-10-16T00:25:18.032Z,13.04
2018-10-16T00:26:17.995Z,13.03
2018-10-16T00:27:17.997Z,13.02
2018-10-16T00:28:18.104Z,13
2018-10-16T00:29:17.916Z,12.99
2018-10-16T00:30:17.993Z,12.98
2018-10-16T00:31:18.024Z,12.98
2018-10-16T00:32:17.937Z,12.98
2018-10-16T00:33:18.322Z,12.99
2018-10-16T00:34:18.083Z,13
2018-10-16T00:35:18.084Z,13
2018-10-16T00:36:17.903Z,13
2018-10-16T00:37:18.051Z,12.98
2018-10-16T00:38:18.128Z,12.98
2018-10-16T00:39:17.979Z,12.94
2018-10-16T00:40:18.299Z,12.96
2018-10-16T00:41:18.132Z,12.95
2018-10-16T00:42:18.405Z,12.92
2018-10-16T00:43:18.110Z,12.91
2018-10-16T00:44:17.998Z,12.9
2018-10-16T00:45:18.117Z,12.9
2018-10-16T00:46:17.968Z,12.84
2018-10-16T00:47:18.189Z,12.85
2018-10-16T00:48:18.060Z,12.84
2018-10-16T00:49:17.914Z,12.82
2018-10-16T00:50:18.575Z,12.84
2018-10-16T00:51:17.959Z,12.81
2018-10-16T00:52:17.962Z,12.81
2018-10-16T00:53:18.371Z,12.8
2018-10-16T00:54:18.140Z,12.79
2018-10-16T00:55:17.895Z,12.78
2018-10-16T00:56:18.001Z,12.77
2018-10-16T00:57:17.871Z,12.74
2018-10-16T00:58:18.024Z,12.72
2018-10-16T00:59:17.866Z,12.7
2018-10-16T01:00:17.818Z,12.69
2018-10-16T01:01:17.879Z,12.7
2018-10-16T01:02:17.937Z,12.67
2018-10-16T01:03:17.939Z,12.64
2018-10-16T01:04:17.962Z,12.65
2018-10-16T01:05:17.987Z,12.62
2018-10-16T01:06:17.988Z,12.62
2018-10-16T01:07:17.925Z,12.61
2018-10-16T01:08:18.175Z,12.6
2018-10-16T01:09:17.888Z,12.59
2018-10-16T01:10:17.933Z,12.57
2018-10-16T01:11:18.154Z,12.54
2018-10-16T01:12:17.967Z,12.52
2018-10-16T01:13:18.857Z,12.5
2018-10-16T01:14:17.917Z,12.49
2018-10-16T01:15:17.958Z,12.48
2018-10-16T01:16:18.051Z,12.48
2018-10-16T01:17:17.887Z,12.46
2018-10-16T01:18:17.882Z,12.43
2018-10-16T01:19:17.905Z,12.42
2018-10-16T01:20:17.837Z,12.45
2018-10-16T01:21:18.074Z,12.43
2018-10-16T01:22:18.042Z,12.4
2018-10-16T01:23:17.843Z,12.41
2018-10-16T01:24:17.874Z,12.37
2018-10-16T01:25:17.916Z,12.4
2018-10-16T01:26:17.930Z,12.37
2018-10-16T01:27:18.230Z,12.4
2018-10-16T01:28:17.989Z,12.38
2018-10-16T01:29:17.871Z,12.38
2018-10-16T01:30:17.944Z,12.37
2018-10-16T01:31:18.098Z,12.37
2018-10-16T01:32:18.176Z,12.35
2018-10-16T01:33:18.316Z,12.33
2018-10-16T01:34:17.871Z,12.34
2018-10-16T01:35:17.958Z,12.32
2018-10-16T01:36:17.870Z,12.32
2018-10-16T01:37:18.018Z,12.31
2018-10-16T01:38:18.055Z,12.27
2018-10-16T01:39:17.827Z,12.27
2018-10-16T01:40:17.910Z,12.25
2018-10-16T01:41:17.790Z,12.24
2018-10-16T01:42:17.938Z,12.24
2018-10-16T01:43:17.916Z,12.23
2018-10-16T01:44:17.995Z,12.23
2018-10-16T01:45:17.936Z,12.21
2018-10-16T01:46:17.943Z,12.19
2018-10-16T01:47:17.889Z,12.18
2018-10-16T01:48:17.804Z,12.16
2018-10-16T01:49:17.838Z,12.16
2018-10-16T01:50:17.920Z,12.12
2018-10-16T01:51:17.838Z,12.09
2018-10-16T01:52:17.948Z,12.11
2018-10-16T01:53:17.825Z,12.12
2018-10-16T01:54:17.855Z,12.11
2018-10-16T01:55:17.997Z,12.1
2018-10-16T01:56:17.929Z,12.1
2018-10-16T01:57:17.852Z,12.12
2018-10-16T01:58:18.169Z,12.11
2018-10-16T01:59:17.808Z,12.11
2018-10-16T02:00:17.807Z,12.1
2018-10-16T02:01:18.011Z,12.07
2018-10-16T02:02:17.786Z,12.04
2018-10-16T02:03:17.802Z,11.98
2018-10-16T02:04:17.845Z,11.95
2018-10-16T02:05:17.796Z,11.93
2018-10-16T02:06:17.854Z,11.91
2018-10-16T02:07:17.875Z,11.91
2018-10-16T02:08:17.816Z,11.91
2018-10-16T02:09:18.461Z,11.89
2018-10-16T02:10:17.920Z,11.89
2018-10-16T02:11:17.875Z,11.91
2018-10-16T02:12:17.784Z,11.9
2018-10-16T02:13:17.887Z,11.9
2018-10-16T02:14:17.839Z,11.91
2018-10-16T02:15:17.794Z,11.91
2018-10-16T02:16:18.009Z,11.88
2018-10-16T02:17:18.145Z,11.84
2018-10-16T02:18:18.225Z,11.77
2018-10-16T02:19:17.791Z,11.77
2018-10-16T02:20:17.806Z,11.77
2018-10-16T02:21:17.842Z,11.73
2018-10-16T02:22:17.994Z,11.7
2018-10-16T02:23:17.892Z,11.65
2018-10-16T02:24:17.911Z,11.6
2018-10-16T02:25:18.026Z,11.57
2018-10-16T02:26:17.884Z,11.58
2018-10-16T02:27:17.746Z,11.61
2018-10-16T02:28:17.789Z,11.59
2018-10-16T02:29:18.097Z,11.56
2018-10-16T02:30:18.103Z,11.53
2018-10-16T02:31:17.764Z,11.53
2018-10-16T02:32:17.766Z,11.51
2018-10-16T02:33:17.729Z,11.46
2018-10-16T02:34:17.774Z,11.46
2018-10-16T02:35:17.865Z,11.47
2018-10-16T02:36:17.818Z,11.47
2018-10-16T02:37:17.785Z,11.48
2018-10-16T02:38:17.726Z,11.49
2018-10-16T02:39:18.000Z,11.49
2018-10-16T02:40:17.773Z,11.49
2018-10-16T02:41:17.756Z,11.49
2018-10-16T02:42:17.803Z,11.46
2018-10-16T02:43:17.796Z,11.5
2018-10-16T02:44:17.841Z,11.5
2018-10-16T02:45:17.840Z,11.49
2018-10-16T02:46:17.788Z,11.49
2018-10-16T02:47:17.785Z,11.49
2018-10-16T02:48:17.816Z,11.49
2018-10-16T02:49:18.013Z,11.47
2018-10-16T02:50:17.735Z,11.43
2018-10-16T02:51:17.779Z,11.43
2018-10-16T02:52:17.799Z,11.43
2018-10-16T02:53:18.201Z,11.44
2018-10-16T02:54:17.837Z,11.44
2018-10-16T02:55:17.804Z,11.44
2018-10-16T02:56:17.812Z,11.43
2018-10-16T02:57:17.783Z,11.44
2018-10-16T02:58:17.966Z,11.44
2018-10-16T02:59:17.974Z,11.43
2018-10-16T03:00:17.854Z,11.43
2018-10-16T03:01:17.724Z,11.4
2018-10-16T03:02:17.937Z,11.46
2018-10-16T03:03:17.767Z,11.45
2018-10-16T03:04:17.732Z,11.47
2018-10-16T03:05:18.740Z,11.44
2018-10-16T03:06:17.812Z,11.43
2018-10-16T03:07:18.129Z,11.42
2018-10-16T03:08:17.773Z,11.41
2018-10-16T03:09:17.882Z,11.41
2018-10-16T03:10:17.820Z,11.35
2018-10-16T03:11:17.920Z,11.39
2018-10-16T03:12:17.878Z,11.38
2018-10-16T03:13:17.780Z,11.38
2018-10-16T03:14:17.810Z,11.36
2018-10-16T03:15:17.767Z,11.4
2018-10-16T03:16:17.929Z,11.44
2018-10-16T03:17:17.899Z,11.41
2018-10-16T03:18:17.868Z,11.4
2018-10-16T03:19:17.867Z,11.41
2018-10-16T03:20:18.395Z,11.42
2018-10-16T03:21:18.126Z,11.4
2018-10-16T03:22:18.176Z,11.41
2018-10-16T03:24:18.180Z,11.38
2018-10-16T03:25:17.785Z,11.37
2018-10-16T03:26:17.701Z,11.35
2018-10-16T03:27:17.706Z,11.34
2018-10-16T03:28:17.652Z,11.32
2018-10-16T03:29:17.762Z,11.32
2018-10-16T03:30:17.807Z,11.29
2018-10-16T03:31:17.629Z,11.3
2018-10-16T03:32:17.839Z,11.29
2018-10-16T03:33:17.763Z,11.25
2018-10-16T03:34:17.601Z,11.24
2018-10-16T03:35:17.571Z,11.23
2018-10-16T03:36:17.580Z,11.22
2018-10-16T03:37:17.699Z,11.2
2018-10-16T03:38:17.827Z,11.2
2018-10-16T03:39:17.604Z,11.18
2018-10-16T03:40:17.615Z,11.17
2018-10-16T03:41:17.644Z,11.17
2018-10-16T03:42:17.666Z,11.15
2018-10-16T03:43:17.602Z,11.17
2018-10-16T03:44:17.624Z,11.16
2018-10-16T03:45:17.576Z,11.16
2018-10-16T03:46:17.646Z,11.16
2018-10-16T03:47:17.569Z,11.15
2018-10-16T03:48:17.647Z,11.16
2018-10-16T03:49:17.787Z,11.14
2018-10-16T03:50:17.585Z,11.14
2018-10-16T03:51:17.609Z,11.14
2018-10-16T03:52:17.624Z,11.17
2018-10-16T03:53:18.155Z,11.17
2018-10-16T03:54:17.635Z,11.21
2018-10-16T03:55:17.566Z,11.21
2018-10-16T03:56:17.732Z,11.23
2018-10-16T03:57:18.406Z,11.26
2018-10-16T03:58:17.636Z,11.27
2018-10-16T03:59:17.573Z,11.29
2018-10-16T04:00:17.554Z,11.3
2018-10-16T04:01:17.602Z,11.31
2018-10-16T04:02:17.621Z,11.31
2018-10-16T04:03:17.713Z,11.3
2018-10-16T04:04:17.544Z,11.31
2018-10-16T04:05:17.542Z,11.29
2018-10-16T04:06:17.525Z,11.28
2018-10-16T04:07:17.768Z,11.28
2018-10-16T04:08:17.777Z,11.27
2018-10-16T04:09:17.546Z,11.24
2018-10-16T04:10:17.523Z,11.23
2018-10-16T04:11:17.558Z,11.23
2018-10-16T04:12:17.536Z,11.23
2018-10-16T04:13:17.593Z,11.25
2018-10-16T04:14:17.581Z,11.24
2018-10-16T04:15:17.665Z,11.26
2018-10-16T04:16:17.584Z,11.26
2018-10-16T04:17:17.635Z,11.28
2018-10-16T04:18:17.487Z,11.28
2018-10-16T04:19:17.612Z,11.32
2018-10-16T04:20:17.530Z,11.36
2018-10-16T04:21:17.878Z,11.35
2018-10-16T04:22:18.240Z,11.37
2018-10-16T04:23:17.580Z,11.33
2018-10-16T04:24:17.491Z,11.34
2018-10-16T04:25:17.631Z,11.33
2018-10-16T04:26:17.565Z,11.3
2018-10-16T04:27:17.563Z,11.29
2018-10-16T04:28:17.920Z,11.31
2018-10-16T04:29:18.402Z,11.28
2018-10-16T04:30:17.603Z,11.27
2018-10-16T04:31:17.579Z,11.25
2018-10-16T04:32:17.540Z,11.26
2018-10-16T04:33:17.585Z,11.24
2018-10-16T04:34:17.548Z,11.26
2018-10-16T04:35:17.535Z,11.26
2018-10-16T04:36:17.685Z,11.25
2018-10-16T04:37:17.639Z,11.22
2018-10-16T04:38:18.613Z,11.21
2018-10-16T04:39:17.632Z,11.18
2018-10-16T04:40:17.581Z,11.18
2018-10-16T04:41:17.775Z,11.11
2018-10-16T04:42:17.516Z,11.11
2018-10-16T04:43:17.537Z,11.1
2018-10-16T04:44:17.542Z,11.08
2018-10-16T04:46:17.522Z,11.03
2018-10-16T04:47:17.529Z,11.02
2018-10-16T04:48:17.515Z,11
2018-10-16T04:49:17.500Z,10.99
2018-10-16T04:50:17.583Z,10.94
2018-10-16T04:51:17.547Z,10.94
2018-10-16T04:52:17.519Z,10.93
2018-10-16T04:53:17.448Z,10.92
2018-10-16T04:54:17.814Z,10.89
2018-10-16T04:55:18.653Z,10.88
2018-10-16T04:56:17.563Z,10.88
2018-10-16T04:57:17.575Z,10.87
2018-10-16T04:58:17.435Z,10.86
2018-10-16T04:59:17.640Z,10.88
2018-10-16T05:00:17.442Z,10.85
2018-10-16T05:01:17.710Z,10.85
2018-10-16T05:02:17.497Z,10.82
2018-10-16T05:03:17.468Z,10.83
2018-10-16T05:04:19.175Z,10.79
2018-10-16T05:05:17.520Z,10.77
2018-10-16T05:07:17.485Z,10.63
2018-10-16T05:08:17.486Z,10.61
2018-10-16T05:09:17.514Z,10.57
2018-10-16T05:10:17.575Z,10.61
2018-10-16T05:11:17.800Z,10.6
2018-10-16T05:12:17.436Z,10.65
2018-10-16T05:13:18.842Z,10.68
2018-10-16T05:14:17.519Z,10.72
2018-10-16T05:15:17.758Z,10.77
2018-10-16T05:16:18.338Z,10.79
2018-10-16T05:17:17.630Z,10.78
2018-10-16T05:18:17.500Z,10.73
2018-10-16T05:19:19.644Z,10.7
2018-10-16T05:20:17.567Z,10.63
2018-10-16T05:21:17.450Z,10.6
2018-10-16T05:22:17.562Z,10.51
2018-10-16T05:23:17.840Z,10.41
2018-10-16T05:24:17.484Z,10.32
2018-10-16T05:25:17.505Z,10.11
2018-10-16T05:26:17.534Z,10.01
2018-10-16T05:27:17.675Z,9.84
2018-10-16T05:28:17.785Z,9.9
2018-10-16T05:29:17.522Z,9.78
2018-10-16T05:30:17.435Z,9.71
2018-10-16T05:31:19.607Z,9.78
2018-10-16T05:32:17.732Z,9.84
2018-10-16T05:33:41.838Z,9.96
2018-10-16T05:34:41.876Z,9.96
2018-10-16T05:35:41.926Z,10
2018-10-16T05:36:41.763Z,10.02
2018-10-16T05:37:41.806Z,9.97
2018-10-16T05:38:41.782Z,10.02
2018-10-16T05:39:42.182Z,10.08
2018-10-16T05:40:41.768Z,10.1
2018-10-16T05:41:41.803Z,10.15
2018-10-16T05:42:41.834Z,10.21
2018-10-16T05:43:41.793Z,10.26
2018-10-16T05:44:42.145Z,10.28
2018-10-16T05:45:41.791Z,10.34
2018-10-16T05:46:41.973Z,10.35
2018-10-16T05:47:41.938Z,10.38
2018-10-16T05:48:41.918Z,10.41
2018-10-16T05:49:41.826Z,10.42
2018-10-16T05:50:41.956Z,10.45
2018-10-16T05:51:42.205Z,10.46
2018-10-16T05:52:41.943Z,10.46
2018-10-16T05:53:41.788Z,10.47
2018-10-16T05:54:41.814Z,10.47
2018-10-16T05:55:41.978Z,10.47
2018-10-16T05:56:41.888Z,10.47
2018-10-16T05:57:41.984Z,10.47
2018-10-16T05:58:41.876Z,10.47
2018-10-16T05:59:41.969Z,10.47
2018-10-16T06:00:41.791Z,10.48
2018-10-16T06:01:41.830Z,10.49
2018-10-16T06:02:42.312Z,10.5
2018-10-16T06:03:41.792Z,10.53
2018-10-16T06:04:41.770Z,10.54
2018-10-16T06:05:42.714Z,10.53
2018-10-16T06:06:41.810Z,10.55
2018-10-16T06:07:41.803Z,10.56
2018-10-16T06:08:41.899Z,10.59
2018-10-16T06:09:41.759Z,10.6
2018-10-16T06:10:42.186Z,10.59
2018-10-16T06:11:41.947Z,10.58
2018-10-16T06:12:41.800Z,10.59
2018-10-16T06:13:41.841Z,10.58
2018-10-16T06:14:41.981Z,10.58
2018-10-16T06:15:41.723Z,10.58
2018-10-16T06:16:41.780Z,10.58
2018-10-16T06:17:41.713Z,10.57
2018-10-16T06:18:42.175Z,10.52
2018-10-16T06:19:41.858Z,10.51
2018-10-16T06:20:41.801Z,10.51
2018-10-16T06:21:41.905Z,10.52
2018-10-16T06:22:41.806Z,10.53
2018-10-16T06:23:41.746Z,10.54
2018-10-16T06:24:41.731Z,10.55
2018-10-16T06:25:41.765Z,10.61
2018-10-16T06:26:42.089Z,10.61
2018-10-16T06:27:42.531Z,10.65
2018-10-16T06:28:41.834Z,10.7
2018-10-16T06:29:41.874Z,10.73
2018-10-16T06:30:42.110Z,10.78
2018-10-16T06:31:41.751Z,10.77
2018-10-16T06:32:41.834Z,10.77
2018-10-16T06:33:41.940Z,10.77
2018-10-16T06:34:41.968Z,10.77
2018-10-16T06:35:41.819Z,10.77
2018-10-16T06:36:41.867Z,10.8
2018-10-16T06:37:42.082Z,10.81
2018-10-16T06:38:41.770Z,10.82
2018-10-16T06:39:41.757Z,10.8
2018-10-16T06:40:43.125Z,10.83
2018-10-16T06:41:42.564Z,10.84
2018-10-16T06:42:41.975Z,10.88
2018-10-16T06:43:42.257Z,10.88
2018-10-16T06:44:42.135Z,10.88
2018-10-16T06:45:41.761Z,10.9
2018-10-16T06:46:43.289Z,10.9
2018-10-16T06:47:43.294Z,10.92
2018-10-16T06:48:46.668Z,10.93
2018-10-16T06:49:41.702Z,10.97
2018-10-16T06:50:41.678Z,11.01
2018-10-16T06:51:41.664Z,11.01
2018-10-16T06:52:41.712Z,11.03
2018-10-16T06:53:41.737Z,11.05
2018-10-16T06:54:42.322Z,11.07
2018-10-16T06:55:41.655Z,11.08
2018-10-16T06:56:41.760Z,11.12
2018-10-16T06:57:41.714Z,11.13
2018-10-16T06:58:41.709Z,11.14
2018-10-16T06:59:41.720Z,11.15
2018-10-16T07:00:41.728Z,11.16
2018-10-16T07:01:41.693Z,11.2
2018-10-16T07:02:41.726Z,11.22
2018-10-16T07:03:41.671Z,11.26
2018-10-16T07:04:41.678Z,11.3
2018-10-16T07:05:41.712Z,11.32
2018-10-16T07:06:42.182Z,11.33
2018-10-16T07:07:41.704Z,11.38
2018-10-16T07:08:41.963Z,11.4
2018-10-16T07:09:41.955Z,11.44
2018-10-16T07:10:41.698Z,11.46
2018-10-16T07:11:41.764Z,11.49
2018-10-16T07:12:41.642Z,11.49
2018-10-16T07:13:41.643Z,11.52
2018-10-16T07:14:41.819Z,11.54
2018-10-16T07:15:41.786Z,11.56
2018-10-16T07:17:41.645Z,11.62
2018-10-16T07:18:41.711Z,11.67
2018-10-16T07:19:41.710Z,11.68
2018-10-16T07:20:41.820Z,11.69
2018-10-16T07:21:42.650Z,11.73
2018-10-16T07:22:41.724Z,11.74
2018-10-16T07:23:42.298Z,11.76
2018-10-16T07:24:41.706Z,11.79
2018-10-16T07:25:41.733Z,11.81
2018-10-16T07:26:41.706Z,11.85
2018-10-16T07:27:41.845Z,11.87
2018-10-16T07:28:41.697Z,11.88
2018-10-16T07:29:41.636Z,11.89
2018-10-16T07:30:41.805Z,11.93
2018-10-16T07:31:41.676Z,11.94
2018-10-16T07:32:41.921Z,11.98
2018-10-16T07:33:41.758Z,12
2018-10-16T07:34:41.720Z,12.04
2018-10-16T07:35:42.080Z,12.07
2018-10-16T07:36:42.017Z,12.11
2018-10-16T07:37:42.182Z,12.12
2018-10-16T07:38:42.177Z,12.15
2018-10-16T07:39:41.983Z,12.17
2018-10-16T07:40:41.640Z,12.21
2018-10-16T07:41:41.669Z,12.18
2018-10-16T07:42:41.765Z,12.16
2018-10-16T07:43:41.620Z,12.19
2018-10-16T07:44:41.779Z,12.21
2018-10-16T07:45:41.624Z,12.23
2018-10-16T07:46:41.594Z,12.25
2018-10-16T07:47:41.689Z,12.29
2018-10-16T07:48:43.561Z,12.31
2018-10-16T07:49:41.624Z,12.34
2018-10-16T07:50:41.672Z,12.34
2018-10-16T07:51:41.607Z,12.36
2018-10-16T07:52:41.617Z,12.4
2018-10-16T07:53:41.700Z,12.43
2018-10-16T07:54:41.686Z,12.47
2018-10-16T07:55:41.878Z,12.43
2018-10-16T07:56:41.676Z,12.45
2018-10-16T07:57:41.843Z,12.44
2018-10-16T07:58:41.673Z,12.45
2018-10-16T07:59:41.805Z,12.45
2018-10-16T08:00:41.793Z,12.47
2018-10-16T08:01:42.000Z,12.51
2018-10-16T08:02:41.730Z,12.51
2018-10-16T08:03:41.681Z,12.55
2018-10-16T08:04:41.615Z,12.6
2018-10-16T08:05:41.682Z,12.62
2018-10-16T08:06:41.861Z,12.66
2018-10-16T08:07:41.629Z,12.66
2018-10-16T08:08:41.754Z,12.71
2018-10-16T08:09:41.706Z,12.68
2018-10-16T08:11:41.791Z,12.74
2018-10-16T08:12:42.323Z,12.77
2018-10-16T08:13:41.803Z,12.79
2018-10-16T08:14:41.693Z,12.83
2018-10-16T08:15:41.707Z,12.84
2018-10-16T08:16:41.770Z,12.83
2018-10-16T08:17:41.636Z,12.86
2018-10-16T08:18:41.816Z,12.88
2018-10-16T08:19:41.658Z,12.93
2018-10-16T08:20:41.579Z,12.96
2018-10-16T08:21:42.068Z,12.99
2018-10-16T08:22:41.619Z,13.04
2018-10-16T08:23:41.632Z,13.08
2018-10-16T08:24:41.672Z,13.1
2018-10-16T08:25:41.633Z,13.12
2018-10-16T08:26:41.880Z,13.14
2018-10-16T08:27:41.626Z,13.2
2018-10-16T08:29:41.558Z,13.27
2018-10-16T08:30:42.579Z,13.3
2018-10-16T08:31:41.542Z,13.34
2018-10-16T08:32:41.570Z,13.35
2018-10-16T08:33:41.536Z,13.37
2018-10-16T08:34:41.610Z,13.4
2018-10-16T08:35:41.822Z,13.42
2018-10-16T08:36:43.090Z,13.46
2018-10-16T08:37:41.530Z,13.46
2018-10-16T08:38:41.511Z,13.49
2018-10-16T08:39:41.545Z,13.53
2018-10-16T08:40:41.554Z,13.54
2018-10-16T08:41:41.962Z,13.56
2018-10-16T08:42:41.971Z,13.57
2018-10-16T08:43:41.576Z,13.6
2018-10-16T08:44:42.362Z,13.62
2018-10-16T08:45:41.712Z,13.64
2018-10-16T08:46:41.668Z,13.69
2018-10-16T08:47:42.645Z,13.71
2018-10-16T08:48:41.831Z,13.75
2018-10-16T08:49:41.677Z,13.78
2018-10-16T08:50:41.585Z,13.81
2018-10-16T08:51:41.547Z,13.88
2018-10-16T08:52:41.548Z,13.93
2018-10-16T08:53:41.749Z,13.98
2018-10-16T08:54:41.721Z,14.01
2018-10-16T08:55:41.670Z,14.05
2018-10-16T08:56:41.592Z,14.07
2018-10-16T08:57:41.571Z,14.1
2018-10-16T08:58:41.580Z,14.12
2018-10-16T08:59:41.548Z,14.16
2018-10-16T09:00:41.610Z,14.19
2018-10-16T09:01:41.621Z,14.24
2018-10-16T09:02:41.677Z,14.28
2018-10-16T09:03:41.557Z,14.31
2018-10-16T09:04:41.903Z,14.35
2018-10-16T09:05:41.543Z,14.4
2018-10-16T09:06:42.256Z,14.42
2018-10-16T09:07:41.524Z,14.47
2018-10-16T09:08:41.764Z,14.48
2018-10-16T09:09:41.608Z,14.54
2018-10-16T09:10:41.777Z,14.54
2018-10-16T09:11:41.646Z,14.59
2018-10-16T09:12:41.500Z,14.61
2018-10-16T09:13:41.543Z,14.64
2018-10-16T09:14:41.582Z,14.66
2018-10-16T09:15:41.556Z,14.67
2018-10-16T09:16:41.523Z,14.72
2018-10-16T09:17:41.591Z,14.73
2018-10-16T09:18:41.592Z,14.74
2018-10-16T09:19:41.899Z,14.78
2018-10-16T09:20:41.577Z,14.81
2018-10-16T09:21:41.499Z,14.86
2018-10-16T09:22:41.476Z,14.9
2018-10-16T09:23:41.530Z,14.94
2018-10-16T09:24:42.589Z,15.03
2018-10-16T09:25:41.964Z,15.05
2018-10-16T09:26:41.532Z,15.18
2018-10-16T09:27:41.675Z,15.22
2018-10-16T09:28:41.460Z,15.29
2018-10-16T09:29:41.477Z,15.36
2018-10-16T09:30:42.355Z,15.44
2018-10-16T09:31:41.493Z,15.46
2018-10-16T09:32:41.496Z,15.49
2018-10-16T09:33:41.810Z,15.54
2018-10-16T09:34:41.450Z,15.53
2018-10-16T09:35:41.465Z,15.58
2018-10-16T09:36:41.524Z,15.64
2018-10-16T09:37:43.525Z,15.63
2018-10-16T09:38:41.769Z,15.68
2018-10-16T09:39:41.529Z,15.7
2018-10-16T09:40:41.564Z,15.77
2018-10-16T09:41:41.532Z,15.82
2018-10-16T09:42:41.667Z,15.87
2018-10-16T09:43:41.643Z,15.9
2018-10-16T09:44:41.671Z,15.96
2018-10-16T09:45:41.693Z,16
2018-10-16T09:46:41.694Z,16.07
2018-10-16T09:47:42.386Z,16.1
2018-10-16T09:48:41.861Z,16.15
2018-10-16T09:49:42.607Z,16.22
2018-10-16T09:50:41.625Z,16.25
2018-10-16T09:51:41.524Z,16.3
2018-10-16T09:52:41.909Z,16.36
2018-10-16T09:53:41.463Z,16.37
2018-10-16T09:54:41.449Z,16.33
2018-10-16T09:55:41.570Z,16.33
2018-10-16T09:56:41.570Z,16.34
2018-10-16T09:57:41.864Z,16.34
2018-10-16T09:58:41.444Z,16.35
2018-10-16T09:59:41.560Z,16.36
2018-10-16T10:00:41.765Z,16.4
2018-10-16T10:01:41.589Z,16.41
2018-10-16T10:02:41.597Z,16.5
2018-10-16T10:03:41.596Z,16.53
2018-10-16T10:04:41.600Z,16.58
2018-10-16T10:05:41.496Z,16.67
2018-10-16T10:06:41.515Z,16.7
2018-10-16T10:07:41.538Z,16.79
2018-10-16T10:08:41.624Z,16.84
2018-10-16T10:09:41.535Z,16.87
2018-10-16T10:10:41.426Z,16.89
2018-10-16T10:11:41.483Z,16.94
2018-10-16T10:12:41.644Z,16.99
2018-10-16T10:13:41.416Z,17.04
2018-10-16T10:14:41.614Z,17.05
2018-10-16T10:15:41.476Z,17.13
2018-10-16T10:16:41.707Z,17.15
2018-10-16T10:17:41.524Z,17.15
2018-10-16T10:18:41.576Z,17.19
2018-10-16T10:19:41.740Z,17.19
2018-10-16T10:20:41.567Z,17.2
2018-10-16T10:21:41.502Z,17.21
2018-10-16T10:22:41.430Z,17.23
2018-10-16T10:23:41.432Z,17.22
2018-10-16T10:24:41.407Z,17.24
2018-10-16T10:25:41.430Z,17.27
2018-10-16T10:26:41.448Z,17.29
2018-10-16T10:27:41.600Z,17.29
2018-10-16T10:28:41.615Z,17.32
2018-10-16T10:29:42.466Z,17.34
2018-10-16T10:30:41.792Z,17.37
2018-10-16T10:31:41.461Z,17.36
2018-10-16T10:32:41.732Z,17.42
2018-10-16T10:33:41.920Z,17.46
2018-10-16T10:34:41.427Z,17.53
2018-10-16T10:35:41.725Z,17.61
2018-10-16T10:36:41.595Z,17.62
2018-10-16T10:37:41.449Z,17.63
2018-10-16T10:38:41.474Z,17.61
2018-10-16T10:39:41.445Z,17.62
2018-10-16T10:40:41.525Z,17.63
2018-10-16T10:41:41.432Z,17.68
2018-10-16T10:42:41.545Z,17.71
2018-10-16T10:43:41.397Z,17.75
2018-10-16T10:44:41.513Z,17.77
2018-10-16T10:45:41.589Z,17.79
2018-10-16T10:46:41.388Z,17.82
2018-10-16T10:47:41.837Z,17.82
2018-10-16T10:48:41.423Z,17.83
2018-10-16T10:49:41.524Z,17.86
2018-10-16T10:50:45.062Z,17.89
2018-10-16T10:51:43.173Z,17.92
2018-10-16T10:52:41.533Z,18.04
2018-10-16T10:53:41.373Z,18.06
2018-10-16T10:54:41.408Z,18.06
2018-10-16T10:55:41.426Z,18.11
2018-10-16T10:56:42.403Z,18.12
2018-10-16T10:57:41.607Z,18.14
2018-10-16T10:58:41.576Z,18.13
2018-10-16T10:59:41.441Z,18.16
2018-10-16T11:00:41.433Z,18.2
2018-10-16T11:01:41.568Z,18.27
2018-10-16T11:02:41.396Z,18.29
2018-10-16T11:03:43.480Z,18.3
2018-10-16T11:04:41.519Z,18.31
2018-10-16T11:05:41.520Z,18.31
2018-10-16T11:06:41.367Z,18.32
2018-10-16T11:07:41.892Z,18.4
2018-10-16T11:08:41.574Z,18.47
2018-10-16T11:09:41.386Z,18.45
2018-10-16T11:10:41.489Z,18.45
2018-10-16T11:11:40.985Z,18.48
2018-10-16T11:12:41.550Z,18.47
2018-10-16T11:13:41.333Z,18.47
2018-10-16T11:14:41.715Z,18.48
2018-10-16T11:15:41.633Z,18.49
2018-10-16T11:16:41.345Z,18.48
2018-10-16T11:17:41.453Z,18.52
2018-10-16T11:18:41.478Z,18.56
2018-10-16T11:19:41.433Z,18.65
2018-10-16T11:20:41.511Z,18.71
2018-10-16T11:21:41.377Z,18.74
2018-10-16T11:22:41.511Z,18.78
2018-10-16T11:23:41.410Z,18.8
2018-10-16T11:24:41.566Z,18.84
2018-10-16T11:25:41.406Z,18.88
2018-10-16T11:26:41.496Z,18.93
2018-10-16T11:27:41.600Z,19.01
2018-10-16T11:28:41.394Z,19.06
2018-10-16T11:29:41.573Z,19.11
2018-10-16T11:30:41.655Z,19.13
2018-10-16T11:31:41.402Z,19.16
2018-10-16T11:32:41.395Z,19.25
2018-10-16T11:33:41.375Z,19.22
2018-10-16T11:34:41.451Z,19.26
2018-10-16T11:35:41.420Z,19.28
2018-10-16T11:36:41.729Z,19.31
2018-10-16T11:37:41.842Z,19.38
2018-10-16T11:38:41.361Z,19.42
2018-10-16T11:39:41.320Z,19.44
2018-10-16T11:40:41.321Z,19.49
2018-10-16T11:41:41.390Z,19.51
2018-10-16T11:42:41.706Z,19.58
2018-10-16T11:43:41.315Z,19.59
2018-10-16T11:44:41.637Z,19.69
2018-10-16T11:45:42.213Z,19.69
2018-10-16T11:46:41.547Z,19.76
2018-10-16T11:47:41.420Z,19.76
2018-10-16T11:48:41.432Z,19.79
2018-10-16T11:49:41.299Z,19.77
2018-10-16T11:50:41.652Z,19.77
2018-10-16T11:51:41.378Z,19.76
2018-10-16T11:52:41.667Z,19.79
2018-10-16T11:53:41.352Z,19.8
2018-10-16T11:54:41.796Z,19.85
2018-10-16T11:55:41.343Z,19.84
2018-10-16T11:56:41.411Z,19.86
2018-10-16T11:57:41.570Z,19.91
2018-10-16T11:58:41.348Z,19.94
2018-10-16T11:59:41.339Z,19.95
2018-10-16T12:00:41.508Z,19.97
2018-10-16T12:01:41.291Z,20
2018-10-16T12:02:41.835Z,20.08
2018-10-16T12:03:41.336Z,20.1
2018-10-16T12:04:41.471Z,20.08
2018-10-16T12:05:41.380Z,20.1
2018-10-16T12:06:41.365Z,20.11
2018-10-16T12:07:41.361Z,20.13
2018-10-16T12:08:41.694Z,20.18
2018-10-16T12:09:41.579Z,20.2
2018-10-16T12:10:42.041Z,20.19
2018-10-16T12:11:41.359Z,20.22
2018-10-16T12:12:41.335Z,20.26
2018-10-16T12:13:41.365Z,20.26
2018-10-16T12:14:41.547Z,20.37
2018-10-16T12:15:41.322Z,20.38
2018-10-16T12:16:42.316Z,20.41
2018-10-16T12:17:41.501Z,20.42
2018-10-16T12:18:41.323Z,20.42
2018-10-16T12:19:42.794Z,20.54
2018-10-16T12:20:41.436Z,20.54
2018-10-16T12:21:41.296Z,20.52
2018-10-16T12:22:41.444Z,20.59
2018-10-16T12:23:42.965Z,20.57
2018-10-16T12:24:41.447Z,20.57
2018-10-16T12:25:41.322Z,20.62
2018-10-16T12:26:41.335Z,20.67
2018-10-16T12:27:41.539Z,20.79
2018-10-16T12:28:41.266Z,20.78
2018-10-16T12:29:41.374Z,20.76
2018-10-16T12:30:41.507Z,20.74
2018-10-16T12:31:41.267Z,21.03
2018-10-16T12:32:41.467Z,21.12
2018-10-16T12:33:41.379Z,21.03
2018-10-16T12:34:41.392Z,21
2018-10-16T12:35:41.492Z,20.95
2018-10-16T12:36:41.294Z,20.97
2018-10-16T12:37:41.407Z,20.94
2018-10-16T12:38:41.437Z,21
2018-10-16T12:39:42.180Z,20.98
2018-10-16T12:40:41.462Z,21.08
2018-10-16T12:41:41.411Z,21.07
2018-10-16T12:42:41.826Z,21.09
2018-10-16T12:43:44.253Z,21.16
2018-10-16T12:44:41.324Z,21.13
2018-10-16T12:45:42.547Z,21.16
2018-10-16T12:46:41.268Z,21.22
2018-10-16T12:47:41.288Z,21.21
2018-10-16T12:48:41.435Z,21.19
2018-10-16T12:49:41.383Z,21.18
2018-10-16T12:50:41.472Z,21.16
2018-10-16T12:51:41.252Z,21.2
2018-10-16T12:52:41.460Z,21.27
2018-10-16T12:53:41.315Z,21.23
2018-10-16T12:54:41.265Z,21.25
2018-10-16T12:55:41.450Z,21.24
2018-10-16T12:56:41.881Z,21.24
2018-10-16T12:57:41.264Z,21.23
2018-10-16T12:58:41.264Z,21.22
2018-10-16T12:59:41.241Z,21.22
2018-10-16T13:00:41.410Z,21.21
2018-10-16T13:01:41.344Z,21.22
2018-10-16T13:02:41.292Z,21.23